Time;durP1;ratioP1;P1;durP2;ratioP2;P2;SDS_P1;SDS_P2;PMS_P1;PMS_P2;Temp;Humidity;BMP_temperature;BMP_pressure;BME280_temperature;BME280_humidity;BME280_pressure;Samples;Min_cycle;Max_cycle;Signal;HPM_P1;HPM_P2
2021/12/17 00:04:52;;;;;;;41.75;24.77;;;;;;;8.82;77.65;103210.19;4998111;28;20037;-68
2021/12/17 00:07:21;;;;;;;33.35;22.50;;;;;;;8.91;77.98;103205.94;5016726;28;20050;-67
2021/12/17 00:09:51;;;;;;;41.60;23.60;;;;;;;8.87;77.14;103205.59;5013260;28;20050;-67
2021/12/17 00:12:21;;;;;;;40.88;24.88;;;;;;;8.84;77.97;103206.09;5013756;28;20056;-67
2021/12/17 00:14:49;;;;;;;38.40;23.73;;;;;;;8.99;77.48;103211.09;5015752;28;20057;-67
2021/12/17 00:17:24;;;;;;;37.20;22.77;;;;;;;8.94;77.22;103206.31;4997592;28;20056;-67
2021/12/17 00:53:16;;;;;;;44.20;26.35;;;;;;;9.01;78.33;103196.00;4997729;28;20056;-65
2021/12/17 00:55:43;;;;;;;39.22;24.40;;;;;;;9.13;77.94;103184.16;4998293;28;20060;-67
2021/12/17 00:58:10;;;;;;;40.30;25.63;;;;;;;8.70;79.57;103188.19;5015090;28;20053;-67
2021/12/17 01:00:38;;;;;;;37.33;23.75;;;;;;;8.76;79.91;103183.66;4987246;28;20080;-67
2021/12/17 01:03:05;;;;;;;39.88;25.35;;;;;;;8.70;80.22;103187.38;4999032;28;20042;-66
2021/12/17 01:05:34;;;;;;;49.28;26.00;;;;;;;8.52;81.14;103179.25;4995539;28;20054;-65
2021/12/17 01:08:04;;;;;;;42.33;26.00;;;;;;;8.86;79.98;103181.94;4959420;28;20547;-66
2021/12/17 01:10:44;;;;;;;43.63;26.05;;;;;;;8.88;79.35;103188.03;4999196;28;20444;-66
2021/12/17 01:13:31;;;;;;;48.60;27.98;;;;;;;8.85;80.11;103185.78;4997718;28;20042;-66
2021/12/17 01:16:19;;;;;;;45.63;28.02;;;;;;;8.63;80.91;103184.72;4995318;28;20066;-66
2021/12/17 01:19:13;;;;;;;44.88;27.20;;;;;;;8.57;81.04;103188.44;4999051;28;20054;-66
2021/12/17 01:22:39;;;;;;;42.40;26.58;;;;;;;8.86;80.80;103184.69;4998026;28;20061;-67
2021/12/17 01:24:46;;;;;;;48.85;27.30;;;;;;;8.49;81.90;103185.25;4986611;28;20588;-66
2021/12/17 01:36:14;;;;;;;48.08;29.35;;;;;;;8.44;83.02;103172.19;4979323;28;20054;-66
2021/12/17 01:43:48;;;;;;;49.58;29.95;;;;;;;8.06;84.03;103166.31;4998076;28;19929;-67
2021/12/17 01:46:21;;;;;;;47.65;29.23;;;;;;;8.16;84.01;103180.28;4982624;28;20065;-66
2021/12/17 01:49:18;;;;;;;46.65;29.10;;;;;;;8.47;83.04;103176.41;5015956;28;20061;-67
2021/12/17 02:00:35;;;;;;;45.83;28.58;;;;;;;8.17;83.86;103176.47;4982707;28;20068;-67
2021/12/17 02:03:05;;;;;;;42.53;27.42;;;;;;;7.96;84.15;103174.31;4982592;28;20046;-67
2021/12/17 02:05:37;;;;;;;47.22;29.52;;;;;;;7.80;84.77;103174.97;5015850;28;20054;-65
2021/12/17 02:08:05;;;;;;;50.83;29.20;;;;;;;7.73;85.28;103180.59;4998326;28;20081;-66
2021/12/17 02:33:19;;;;;;;41.05;26.05;;;;;;;8.26;82.08;103180.59;4974782;28;20069;-66
2021/12/17 02:35:48;;;;;;;40.85;25.60;;;;;;;8.10;82.12;103174.91;5014902;28;20113;-65
2021/12/17 02:38:17;;;;;;;44.03;25.92;;;;;;;8.13;82.02;103177.19;5015177;28;20045;-65
2021/12/17 02:46:57;;;;;;;38.22;24.58;;;;;;;8.13;81.32;103168.94;4994604;28;20054;-66
2021/12/17 02:49:26;;;;;;;43.78;25.38;;;;;;;7.93;83.29;103167.38;4978279;28;20062;-66
2021/12/17 02:51:55;;;;;;;37.80;25.30;;;;;;;7.85;83.35;103177.84;4988143;28;20424;-66
2021/12/17 02:54:22;;;;;;;41.10;26.00;;;;;;;8.17;82.25;103161.91;4981786;28;20050;-67
2021/12/17 02:56:50;;;;;;;40.35;24.73;;;;;;;8.19;81.52;103163.34;4981434;28;20503;-66
2021/12/17 02:59:17;;;;;;;38.80;25.05;;;;;;;7.98;81.89;103162.00;4981101;28;20041;-66
2021/12/17 03:01:45;;;;;;;38.05;24.70;;;;;;;8.04;82.14;103170.38;4980312;28;20057;-66
2021/12/17 03:04:13;;;;;;;38.70;25.38;;;;;;;8.13;81.67;103161.53;5014976;28;20054;-66
2021/12/17 03:06:41;;;;;;;41.30;26.00;;;;;;;8.10;81.35;103162.03;4997191;28;20050;-67
2021/12/17 03:09:09;;;;;;;37.42;25.60;;;;;;;8.14;81.45;103157.75;4998035;28;20064;-66
2021/12/17 03:11:36;;;;;;;36.10;23.70;;;;;;;8.30;80.52;103158.97;4997742;28;20058;-65
2021/12/17 03:14:04;;;;;;;37.95;24.25;;;;;;;8.17;80.99;103159.16;4999292;28;20062;-66
2021/12/17 03:16:43;;;;;;;38.60;25.05;;;;;;;7.94;82.23;103149.00;4992503;28;20050;-65
2021/12/17 03:23:24;;;;;;;37.53;25.58;;;;;;;8.06;81.99;103155.34;5015117;28;20520;-66
2021/12/17 03:24:49;;;;;;;42.20;26.75;;;;;;;7.83;83.11;103149.81;5014390;28;20061;-66
2021/12/17 03:27:16;;;;;;;44.55;27.60;;;;;;;7.61;83.44;103151.44;5000473;28;20049;-65
2021/12/17 03:29:44;;;;;;;41.88;26.50;;;;;;;7.59;84.25;103148.94;5018459;28;20069;-67
2021/12/17 03:32:11;;;;;;;43.47;26.52;;;;;;;7.73;83.35;103142.19;4985146;28;20057;-65
2021/12/17 03:34:38;;;;;;;42.95;26.10;;;;;;;7.52;84.00;103153.69;5018903;28;20046;-65
2021/12/17 03:37:06;;;;;;;43.97;26.52;;;;;;;7.47;84.28;103158.19;5000943;28;20053;-67
2021/12/17 03:39:44;;;;;;;40.53;25.98;;;;;;;7.43;85.25;103156.97;5001310;28;20053;-65
2021/12/17 03:42:14;;;;;;;44.20;26.73;;;;;;;7.54;84.77;103158.94;5018627;28;20050;-65
2021/12/17 03:44:41;;;;;;;39.50;26.05;;;;;;;7.63;84.07;103152.03;4985128;28;20493;-66
2021/12/17 03:47:16;;;;;;;41.60;26.08;;;;;;;7.63;83.93;103154.78;5000105;28;20054;-66
2021/12/17 03:50:00;;;;;;;40.25;26.13;;;;;;;7.89;83.21;103154.38;4986624;28;20393;-66
2021/12/17 03:52:28;;;;;;;40.90;26.27;;;;;;;8.05;81.81;103159.16;5000724;28;20050;-66
2021/12/17 03:54:55;;;;;;;41.75;25.77;;;;;;;7.97;82.00;103160.34;5000616;28;20054;-65
2021/12/17 03:57:24;;;;;;;40.47;26.20;;;;;;;7.78;82.84;103163.41;5000571;28;20560;-67
2021/12/17 03:59:53;;;;;;;38.65;25.25;;;;;;;7.71;82.85;103155.28;4984055;28;20065;-65
2021/12/17 04:02:24;;;;;;;43.55;26.20;;;;;;;7.37;84.85;103166.16;5000709;28;20409;-65
2021/12/17 04:04:52;;;;;;;43.53;26.25;;;;;;;7.50;85.35;103165.94;5000339;28;20038;-66
2021/12/17 04:07:34;;;;;;;40.40;24.85;;;;;;;7.96;83.12;103171.56;5018445;28;20513;-66
2021/12/17 04:10:22;;;;;;;41.17;24.52;;;;;;;7.88;82.42;103158.16;5018095;28;20049;-66
2021/12/17 04:12:58;;;;;;;40.22;26.27;;;;;;;7.81;82.92;103160.22;4999577;28;20064;-65
2021/12/17 04:15:37;;;;;;;41.45;24.92;;;;;;;7.77;83.08;103162.59;4999541;28;20056;-67
2021/12/17 04:18:07;;;;;;;40.53;25.83;;;;;;;7.80;82.99;103159.38;5000396;28;20058;-66
2021/12/17 04:20:34;;;;;;;42.58;26.50;;;;;;;7.71;83.40;103159.94;5000597;28;20054;-66
2021/12/17 04:23:02;;;;;;;38.63;24.27;;;;;;;8.14;82.27;103162.41;5000753;28;20038;-66
2021/12/17 04:25:30;;;;;;;39.15;24.55;;;;;;;8.62;80.13;103152.84;4984277;28;20053;-66
2021/12/17 04:27:58;;;;;;;37.53;24.42;;;;;;;8.07;81.32;103154.28;4999689;28;20049;-66
2021/12/17 04:30:28;;;;;;;41.42;24.40;;;;;;;7.88;82.30;103148.03;4999394;28;20056;-66
2021/12/17 04:32:57;;;;;;;36.50;24.63;;;;;;;7.94;83.10;103151.75;5000369;28;20049;-66
2021/12/17 04:35:25;;;;;;;40.15;24.75;;;;;;;8.17;82.09;103151.78;4984040;28;20507;-66
2021/12/17 04:37:54;;;;;;;38.83;25.50;;;;;;;8.21;81.47;103160.38;4998356;28;20054;-66
2021/12/17 04:40:24;;;;;;;40.70;25.17;;;;;;;8.31;81.03;103155.13;4988556;28;20057;-66
2021/12/17 04:45:26;;;;;;;45.97;27.48;;;;;;;8.20;81.16;103151.28;4999174;28;20057;-65
2021/12/17 04:59:30;;;;;;;79.90;43.70;;;;;;;8.63;79.63;103154.50;4981386;28;20070;-65
2021/12/17 05:02:02;;;;;;;96.43;50.80;;;;;;;8.29;80.67;103149.06;4994011;28;20061;-65
2021/12/17 05:04:37;;;;;;;95.43;48.17;;;;;;;7.80;82.96;103151.13;4999057;28;20061;-66
2021/12/17 05:07:07;;;;;;;84.40;46.63;;;;;;;7.96;83.38;103152.34;4999330;28;20057;-66
2021/12/17 05:09:49;;;;;;;77.70;42.50;;;;;;;8.07;82.93;103151.53;4999710;28;20069;-66
2021/12/17 05:23:08;;;;;;;51.15;32.03;;;;;;;8.10;81.97;103141.97;4999223;28;20065;-67
2021/12/17 05:25:35;;;;;;;54.28;33.83;;;;;;;8.19;82.86;103152.38;4982761;28;20057;-65
2021/12/17 05:28:03;;;;;;;54.08;31.75;;;;;;;8.49;81.69;103155.84;4998749;28;20057;-66
2021/12/17 05:30:37;;;;;;;48.80;28.50;;;;;;;8.69;80.46;103149.97;4998673;28;20072;-66
2021/12/17 05:33:05;;;;;;;45.85;30.00;;;;;;;8.64;80.19;103147.13;4998152;28;20054;-65
2021/12/17 05:35:33;;;;;;;45.92;29.08;;;;;;;8.73;80.01;103143.75;4998578;28;20054;-65
2021/12/17 05:38:03;;;;;;;;;;;;;;;8.97;79.54;103147.28;4972377;28;20061;-66
2021/12/17 05:40:30;;;;;;;40.80;24.73;;;;;;;8.68;80.01;103143.63;4979492;28;19944;-65
2021/12/17 05:43:00;;;;;;;35.40;24.20;;;;;;;8.93;79.24;103135.94;4982186;28;20057;-67
2021/12/17 05:45:48;;;;;;;39.60;24.83;;;;;;;8.64;80.55;103144.38;4998479;28;20042;-66
2021/12/17 05:48:20;;;;;;;37.30;24.05;;;;;;;8.71;80.33;103134.94;4995251;28;20114;-65
2021/12/17 05:50:49;;;;;;;39.40;23.85;;;;;;;8.94;79.89;103131.28;4995587;28;20046;-66
2021/12/17 05:53:18;;;;;;;43.95;22.13;;;;;;;9.04;79.51;103131.47;4988085;28;20054;-65
2021/12/17 05:55:45;;;;;;;36.05;22.75;;;;;;;8.82;80.25;103125.78;4979268;28;20054;-66
2021/12/17 05:58:13;;;;;;;35.53;22.40;;;;;;;9.07;79.73;103129.06;4962757;28;20531;-66
2021/12/17 06:00:42;;;;;;;30.95;21.42;;;;;;;9.15;78.98;103118.75;4982188;28;20049;-65
2021/12/17 06:03:29;;;;;;;30.65;20.48;;;;;;;9.05;79.56;103128.47;5012308;28;20117;-65
2021/12/17 06:06:08;;;;;;;35.17;22.63;;;;;;;9.01;79.63;103127.28;4998599;28;20049;-65
2021/12/17 06:08:35;;;;;;;30.88;20.70;;;;;;;9.11;79.70;103126.66;5015431;28;20065;-64
2021/12/17 06:11:02;;;;;;;33.83;21.00;;;;;;;8.81;80.80;103126.88;4982364;28;20054;-64
2021/12/17 06:13:29;;;;;;;34.65;21.35;;;;;;;8.81;81.44;103126.03;4998733;28;20061;-64
2021/12/17 06:15:57;;;;;;;32.63;21.23;;;;;;;8.88;81.20;103130.34;4998190;28;20156;-64
2021/12/17 06:18:24;;;;;;;31.25;20.13;;;;;;;8.90;81.36;103125.44;4997329;28;20062;-65
2021/12/17 06:20:51;;;;;;;29.45;20.88;;;;;;;9.03;81.18;103130.63;4998427;28;20048;-64
2021/12/17 06:23:19;;;;;;;34.38;21.63;;;;;;;8.94;81.28;103132.09;5015780;28;20198;-64
2021/12/17 06:25:46;;;;;;;30.67;20.48;;;;;;;9.06;80.94;103134.81;5015637;28;20050;-64
2021/12/17 06:28:16;;;;;;;35.20;20.35;;;;;;;9.15;80.40;103127.84;4997808;28;20054;-65
2021/12/17 06:30:44;;;;;;;35.92;20.60;;;;;;;8.80;81.74;103125.19;4987872;28;20053;-65
2021/12/17 06:33:19;;;;;;;30.75;19.92;;;;;;;9.00;82.43;103133.88;4960853;28;20065;-64
2021/12/17 06:35:46;;;;;;;28.55;19.48;;;;;;;8.88;82.27;103126.75;4991230;28;20518;-64
2021/12/17 06:38:14;;;;;;;31.60;20.83;;;;;;;8.80;83.05;103130.69;4975047;28;20399;-66
2021/12/17 06:40:42;;;;;;;29.35;18.92;;;;;;;8.79;83.63;103137.28;4967543;28;20059;-65
2021/12/17 06:43:09;;;;;;;29.45;19.38;;;;;;;8.76;83.88;103135.03;4974722;28;20058;-64
2021/12/17 06:48:10;;;;;;;31.55;20.17;;;;;;;8.80;83.93;103140.88;4971638;28;20047;-66
2021/12/17 06:59:42;;;;;;;30.65;19.92;;;;;;;8.94;83.81;103145.84;4959540;28;20054;-66
2021/12/17 07:17:20;;;;;;;31.10;19.58;;;;;;;8.99;83.85;103139.63;4981856;28;20406;-65
2021/12/17 07:28:50;;;;;;;30.10;19.88;;;;;;;8.89;84.25;103153.97;4972348;28;20161;-65
2021/12/17 07:34:02;;;;;;;31.05;19.58;;;;;;;9.13;83.32;103161.06;4994148;28;20053;-65
2021/12/17 07:38:36;;;;;;;31.33;19.05;;;;;;;9.06;83.52;103154.06;4983248;28;20041;-65
2021/12/17 07:39:31;;;;;;;31.98;19.15;;;;;;;9.06;83.50;103154.91;5002003;28;20050;-66
2021/12/17 07:42:20;;;;;;;28.85;19.63;;;;;;;9.06;83.85;103165.91;4995750;28;20173;-65
2021/12/17 07:44:57;;;;;;;34.22;20.20;;;;;;;9.08;83.60;103157.41;4997441;28;20041;-65
2021/12/17 07:47:34;;;;;;;31.80;19.73;;;;;;;9.33;85.19;103163.38;4993265;28;20053;-65
2021/12/17 07:50:21;;;;;;;34.00;19.52;;;;;;;9.52;84.68;103155.78;5003619;28;20052;-64
2021/12/17 07:56:03;;;;;;;29.30;18.98;;;;;;;9.94;82.73;103157.06;4929169;29;20644;-68
2021/12/17 07:58:35;;;;;;;29.25;19.25;;;;;;;10.08;82.06;103155.66;4925826;29;20044;-67
2021/12/17 08:01:03;;;;;;;29.00;18.42;;;;;;;10.02;81.52;103157.47;4930252;29;20062;-63
2021/12/17 08:03:34;;;;;;;29.83;19.48;;;;;;;9.85;81.80;103164.09;4932955;29;20055;-65
2021/12/17 08:06:09;;;;;;;31.08;18.90;;;;;;;9.81;82.52;103160.16;4909171;29;20542;-66
2021/12/17 08:08:54;;;;;;;34.00;19.65;;;;;;;9.59;82.02;103146.28;4937947;29;20050;-65
2021/12/17 08:11:27;;;;;;;29.20;19.27;;;;;;;9.80;82.45;103142.78;4938025;28;20051;-65
2021/12/17 08:13:56;;;;;;;32.45;19.52;;;;;;;10.06;81.46;103146.78;4936819;29;20052;-64
2021/12/17 08:29:51;;;;;;;29.35;19.73;;;;;;;9.91;82.19;103172.19;4918728;29;20048;-64
2021/12/17 08:32:19;;;;;;;37.00;19.45;;;;;;;9.98;81.54;103161.84;4923695;29;20059;-64
2021/12/17 08:34:52;;;;;;;33.72;20.30;;;;;;;9.97;81.55;103173.91;4936789;29;20039;-63
2021/12/17 08:37:20;;;;;;;29.77;19.00;;;;;;;10.12;80.89;103174.22;4965309;28;20050;-64
2021/12/17 08:39:50;;;;;;;32.60;20.17;;;;;;;10.15;80.60;103170.97;4915713;29;20080;-67
2021/12/17 08:42:40;;;;;;;31.77;20.30;;;;;;;10.05;80.49;103168.00;4935368;29;20055;-64
2021/12/17 08:45:09;;;;;;;30.05;19.65;;;;;;;10.15;80.58;103164.59;4930112;29;20063;-67
2021/12/17 08:47:47;;;;;;;29.35;20.20;;;;;;;10.01;81.40;103166.00;4931141;29;20036;-64
2021/12/17 08:50:32;;;;;;;32.92;22.00;;;;;;;10.22;81.14;103161.72;4934893;29;20063;-65
2021/12/17 08:52:59;;;;;;;34.20;21.77;;;;;;;10.16;80.55;103163.53;4931866;29;20285;-65
2021/12/17 08:55:27;;;;;;;29.60;20.80;;;;;;;10.17;80.31;103151.44;4923980;29;20055;-64
2021/12/17 08:57:54;;;;;;;31.40;21.08;;;;;;;10.00;81.04;103159.66;4899268;29;20059;-64
2021/12/17 09:00:22;;;;;;;32.88;20.13;;;;;;;10.02;80.79;103167.69;4933437;29;20047;-64
2021/12/17 09:03:01;;;;;;;31.87;21.23;;;;;;;9.98;81.32;103163.75;4936934;29;20055;-64
2021/12/17 09:05:45;;;;;;;32.75;20.73;;;;;;;9.99;80.88;103174.50;4936379;29;20307;-64
2021/12/17 09:08:20;;;;;;;30.63;21.08;;;;;;;9.53;82.97;103171.19;4927157;29;20051;-64
2021/12/17 09:10:55;;;;;;;33.15;21.45;;;;;;;9.65;83.48;103172.81;4924387;29;20048;-64
2021/12/17 09:13:28;;;;;;;31.58;21.17;;;;;;;9.86;82.69;103176.75;4915979;29;20052;-63
2021/12/17 09:16:05;;;;;;;32.10;21.38;;;;;;;9.59;82.88;103173.78;4936097;29;20048;-64
2021/12/17 09:18:35;;;;;;;31.17;22.02;;;;;;;10.02;81.96;103179.50;4928520;29;20057;-64
2021/12/17 09:21:23;;;;;;;31.70;21.05;;;;;;;9.89;82.05;103187.25;4931012;29;20056;-65
2021/12/17 09:24:16;;;;;;;31.13;21.50;;;;;;;10.03;81.84;103175.69;4933673;29;20060;-66
2021/12/17 09:27:03;;;;;;;30.10;21.27;;;;;;;10.21;80.93;103188.41;4920128;29;20058;-66
2021/12/17 09:29:53;;;;;;;33.22;21.20;;;;;;;9.99;80.99;103192.94;4934197;29;20052;-67
2021/12/17 09:32:21;;;;;;;29.75;21.30;;;;;;;9.92;81.33;103198.63;4915741;29;20091;-66
2021/12/17 09:34:48;;;;;;;28.88;20.30;;;;;;;9.72;81.83;103194.66;4934136;29;20426;-66
2021/12/17 09:37:17;;;;;;;29.20;19.75;;;;;;;9.57;82.85;103208.16;4927623;29;20424;-64
2021/12/17 09:39:45;;;;;;;30.40;19.35;;;;;;;9.68;82.83;103197.09;4930109;29;20051;-65
2021/12/17 09:42:14;;;;;;;30.27;19.17;;;;;;;9.75;82.47;103199.66;4932904;29;20060;-66
2021/12/17 09:44:41;;;;;;;32.80;21.63;;;;;;;10.01;81.59;103199.88;4937304;29;20062;-64
2021/12/17 09:47:09;;;;;;;36.22;20.90;;;;;;;10.11;80.90;103199.25;4908276;29;20056;-64
2021/12/17 09:49:37;;;;;;;30.85;19.75;;;;;;;10.15;81.29;103206.75;4930833;29;20043;-64
2021/12/17 09:52:05;;;;;;;31.33;20.83;;;;;;;10.32;80.38;103209.50;4934094;29;20043;-64
2021/12/17 09:54:33;;;;;;;33.28;20.90;;;;;;;10.27;79.74;103212.19;4933978;29;20059;-64
2021/12/17 09:57:00;;;;;;;30.23;20.45;;;;;;;10.29;79.45;103212.75;4914995;29;20071;-64
2021/12/17 09:59:27;;;;;;;33.30;21.17;;;;;;;9.86;80.88;103224.41;4930721;29;20518;-66
2021/12/17 10:01:55;;;;;;;30.20;20.70;;;;;;;9.88;81.83;103226.91;4934851;29;20573;-66
2021/12/17 10:04:27;;;;;;;30.60;20.80;;;;;;;10.10;81.58;103223.19;4938899;29;20059;-64
2021/12/17 10:07:17;;;;;;;35.28;20.95;;;;;;;10.18;80.52;103214.50;4933966;29;20430;-66
2021/12/17 10:10:03;;;;;;;30.70;21.40;;;;;;;10.20;80.25;103220.63;4935986;29;20047;-66
2021/12/17 10:12:33;;;;;;;35.17;22.70;;;;;;;10.08;81.08;103216.22;4934130;29;20055;-64
2021/12/17 10:15:05;;;;;;;;;;;;;;;10.26;80.45;103209.69;4936114;29;20055;-64
2021/12/17 10:17:34;;;;;;;34.08;22.35;;;;;;;10.45;79.68;103208.31;4935751;29;19934;-64
2021/12/17 10:20:04;;;;;;;35.55;21.27;;;;;;;10.60;79.68;103197.56;4933159;29;20060;-64
2021/12/17 10:22:31;;;;;;;34.22;22.30;;;;;;;10.47;79.50;103201.50;4935842;29;20055;-64
2021/12/17 10:25:07;;;;;;;29.42;21.58;;;;;;;10.45;79.03;103203.66;4929876;29;20054;-64
2021/12/17 10:27:40;;;;;;;35.35;21.48;;;;;;;10.61;79.16;103185.44;4952588;28;20067;-65
2021/12/17 10:30:21;;;;;;;33.40;22.52;;;;;;;10.69;78.12;103183.06;4934353;29;20411;-64
2021/12/17 10:32:52;;;;;;;33.92;22.10;;;;;;;10.09;79.91;103187.66;4930958;29;20052;-64
2021/12/17 10:35:32;;;;;;;30.77;22.50;;;;;;;10.02;80.86;103182.25;4927497;29;20051;-64
2021/12/17 10:38:03;;;;;;;35.63;23.23;;;;;;;10.15;80.60;103172.88;4930787;29;20052;-65
2021/12/17 10:40:34;;;;;;;33.90;23.10;;;;;;;10.17;80.21;103170.69;4914087;29;20052;-64
2021/12/17 10:43:09;;;;;;;33.85;22.67;;;;;;;10.30;80.29;103167.63;4929791;29;20043;-66
2021/12/17 10:45:41;;;;;;;31.80;23.30;;;;;;;10.45;79.74;103162.31;4939891;29;20056;-65
2021/12/17 10:50:49;;;;;;;33.92;23.20;;;;;;;9.99;79.79;103152.47;4928783;29;20098;-64
2021/12/17 10:53:21;;;;;;;35.58;23.60;;;;;;;10.00;81.19;103154.16;4934597;29;20052;-64
2021/12/17 10:55:48;;;;;;;33.63;23.45;;;;;;;9.95;81.58;103154.09;4930185;29;20653;-66
2021/12/17 10:58:16;;;;;;;35.08;23.55;;;;;;;10.09;81.40;103146.34;4926659;29;20040;-63
2021/12/17 11:00:55;;;;;;;33.15;23.38;;;;;;;10.15;80.38;103140.66;4932063;29;20059;-64
2021/12/17 11:03:23;;;;;;;32.42;21.15;;;;;;;10.16;80.78;103139.56;4927560;29;20059;-63
2021/12/17 11:05:51;;;;;;;32.67;21.90;;;;;;;10.20;79.92;103137.13;4933672;29;20062;-64
2021/12/17 11:08:20;;;;;;;37.42;21.77;;;;;;;10.14;80.52;103132.66;4928944;29;20203;-63
2021/12/17 11:10:56;;;;;;;40.38;23.80;;;;;;;10.39;79.74;103138.53;4934574;29;20067;-64
2021/12/17 11:13:24;;;;;;;40.95;22.73;;;;;;;10.45;79.26;103125.66;4935649;29;20100;-64
2021/12/17 11:15:53;;;;;;;45.50;25.88;;;;;;;10.37;79.96;103126.97;4933367;29;20050;-63
2021/12/17 11:18:20;;;;;;;36.58;23.98;;;;;;;10.54;78.81;103124.16;4932178;29;20058;-64
2021/12/17 11:20:48;;;;;;;34.15;24.10;;;;;;;10.63;78.29;103122.63;4930370;29;20059;-64
2021/12/17 11:23:16;;;;;;;33.58;23.05;;;;;;;10.76;77.39;103117.56;4936014;29;20047;-64
2021/12/17 11:25:46;;;;;;;30.85;21.58;;;;;;;10.34;77.25;103112.84;4934576;29;20048;-65
2021/12/17 11:28:14;;;;;;;29.30;20.90;;;;;;;10.35;77.28;103112.59;4934354;29;20055;-64
2021/12/17 11:30:43;;;;;;;29.02;20.75;;;;;;;10.50;76.96;103107.28;4936719;29;20430;-64
2021/12/17 11:33:12;;;;;;;29.67;20.60;;;;;;;10.38;76.44;103098.31;4933588;29;20060;-64
2021/12/17 11:35:44;;;;;;;31.27;19.75;;;;;;;10.42;76.15;103110.50;4921947;29;20060;-64
2021/12/17 11:38:24;;;;;;;31.15;19.80;;;;;;;10.38;76.06;103117.59;4935975;29;20047;-64
2021/12/17 11:41:07;;;;;;;26.95;18.98;;;;;;;10.34;75.22;103096.31;4934101;29;20066;-64
2021/12/17 11:43:52;;;;;;;32.90;20.42;;;;;;;10.23;74.88;103089.84;4932899;29;20051;-64
2021/12/17 11:46:26;;;;;;;28.58;19.58;;;;;;;10.43;75.29;103097.53;4935710;29;20166;-65
2021/12/17 11:49:01;;;;;;;29.35;19.92;;;;;;;10.61;74.70;103092.56;4937172;29;20051;-64
2021/12/17 11:51:31;;;;;;;34.47;21.25;;;;;;;10.57;74.42;103094.16;4935690;29;20059;-64
2021/12/17 11:54:03;;;;;;;31.35;20.60;;;;;;;10.43;74.59;103089.25;4936824;29;20541;-65
2021/12/17 11:56:52;;;;;;;29.00;20.52;;;;;;;10.23;74.69;103086.25;4936881;29;20507;-64
2021/12/17 11:59:47;;;;;;;28.17;19.48;;;;;;;10.43;74.33;103084.59;4931057;29;20048;-63
2021/12/17 12:02:22;;;;;;;33.67;21.08;;;;;;;10.22;74.91;103082.66;4935469;29;20059;-63
2021/12/17 12:05:01;;;;;;;30.92;20.77;;;;;;;10.45;74.14;103084.34;4937217;29;20044;-64
2021/12/17 12:07:28;;;;;;;30.67;20.38;;;;;;;10.43;74.38;103084.59;4940536;29;20047;-63
2021/12/17 12:10:12;;;;;;;29.08;19.63;;;;;;;10.48;73.90;103086.59;4942922;29;20383;-63
2021/12/17 12:12:45;;;;;;;33.75;21.52;;;;;;;10.52;74.77;103080.31;4938900;29;20051;-65
2021/12/17 12:15:28;;;;;;;32.40;20.23;;;;;;;10.46;74.85;103075.81;4938711;29;20062;-65
2021/12/17 12:18:03;;;;;;;33.95;22.67;;;;;;;10.52;74.70;103060.19;4910350;29;20067;-66
2021/12/17 12:23:16;;;;;;;32.90;21.98;;;;;;;10.78;73.75;103065.75;4931199;29;20490;-65
2021/12/17 12:25:45;;;;;;;31.88;21.13;;;;;;;10.55;73.47;103051.44;4937035;29;20513;-66
2021/12/17 12:28:15;;;;;;;31.23;20.80;;;;;;;10.56;73.77;103042.91;4938330;29;20047;-69
2021/12/17 12:30:44;;;;;;;31.50;20.35;;;;;;;10.62;74.10;103057.53;4921878;29;20047;-69
2021/12/17 12:33:13;;;;;;;31.95;19.92;;;;;;;10.64;73.25;103047.94;4938851;29;20506;-68
2021/12/17 12:35:55;;;;;;;32.28;20.80;;;;;;;10.65;73.79;103044.09;4932767;29;20444;-68
2021/12/17 12:38:29;;;;;;;28.27;19.02;;;;;;;10.67;73.55;103052.13;4940871;29;20071;-67
2021/12/17 12:41:00;;;;;;;28.95;17.83;;;;;;;10.65;72.44;103055.13;4938426;29;20424;-68
2021/12/17 12:43:33;;;;;;;29.15;18.23;;;;;;;10.65;72.31;103044.09;4936172;29;20419;-68
2021/12/17 12:46:01;;;;;;;26.77;17.98;;;;;;;10.51;72.71;103034.56;4936572;29;20071;-68
2021/12/17 12:48:36;;;;;;;28.30;18.17;;;;;;;10.54;72.53;103022.19;4936484;29;20047;-66
2021/12/17 12:51:23;;;;;;;28.75;18.70;;;;;;;10.76;72.70;103031.25;4929456;29;20071;-68
2021/12/17 12:54:09;;;;;;;31.13;19.55;;;;;;;10.83;72.00;103031.88;4937042;29;20546;-67
2021/12/17 12:56:39;;;;;;;30.88;19.05;;;;;;;10.75;72.58;103030.44;4911948;29;20051;-66
2021/12/17 12:59:06;;;;;;;;;;;;;;;10.91;72.17;103029.50;4935352;29;20047;-67
2021/12/17 13:01:33;;;;;;;28.58;19.38;;;;;;;10.93;71.66;103035.59;4934247;29;19923;-67
2021/12/17 13:04:07;;;;;;;29.65;18.23;;;;;;;10.67;71.54;103016.28;4938522;28;20499;-67
2021/12/17 13:06:34;;;;;;;26.60;18.38;;;;;;;10.56;71.68;103018.09;4933826;29;20055;-67
2021/12/17 13:09:01;;;;;;;26.30;17.65;;;;;;;10.61;71.21;103020.91;4936476;29;20048;-66
2021/12/17 13:11:29;;;;;;;25.90;16.85;;;;;;;10.68;70.90;103024.31;4935335;29;20048;-67
2021/12/17 13:13:59;;;;;;;28.98;18.13;;;;;;;11.07;70.01;103025.81;4920567;29;20063;-66
2021/12/17 13:21:46;;;;;;;27.38;16.95;;;;;;;10.65;69.88;103023.97;4937866;29;20067;-67
2021/12/17 13:24:21;;;;;;;26.80;17.75;;;;;;;10.65;71.11;103022.03;4931070;29;20050;-66
2021/12/17 13:26:56;;;;;;;29.08;17.05;;;;;;;10.64;70.05;103016.78;4936325;29;20063;-66
2021/12/17 13:29:33;;;;;;;27.50;17.23;;;;;;;10.29;71.06;103019.13;4937427;29;20082;-67
2021/12/17 13:32:03;;;;;;;23.83;15.18;;;;;;;10.03;72.09;103028.91;4929948;29;20052;-67
2021/12/17 13:34:39;;;;;;;25.10;16.30;;;;;;;10.20;72.06;103027.81;4928118;29;20052;-68
2021/12/17 13:37:12;;;;;;;23.50;15.55;;;;;;;10.26;71.88;103031.47;4940204;29;20514;-66
2021/12/17 13:39:46;;;;;;;26.13;15.20;;;;;;;10.05;71.71;103041.34;4933430;29;20044;-68
2021/12/17 13:42:38;;;;;;;23.33;14.43;;;;;;;10.08;71.63;103048.25;4938357;29;20050;-66
2021/12/17 13:45:13;;;;;;;23.77;14.68;;;;;;;10.30;71.09;103038.16;4927008;29;20063;-67
2021/12/17 13:48:02;;;;;;;24.77;15.43;;;;;;;10.20;70.83;103032.47;4924795;29;20055;-65
2021/12/17 13:50:40;;;;;;;26.33;15.07;;;;;;;10.06;71.32;103022.88;4931871;29;20040;-66
2021/12/17 13:53:17;;;;;;;24.90;14.60;;;;;;;9.86;72.17;103022.59;4911354;29;20051;-66
2021/12/17 13:56:04;;;;;;;24.23;15.65;;;;;;;10.01;71.91;103009.06;4936728;28;20128;-66
2021/12/17 13:58:35;;;;;;;26.40;15.75;;;;;;;10.03;72.09;103004.97;4935605;29;20055;-66
2021/12/17 14:01:02;;;;;;;;;;;;;;;9.89;72.58;103000.91;4931140;29;20388;-65
2021/12/17 14:03:33;;;;;;;26.33;15.68;;;;;;;9.98;72.50;103007.66;4933929;29;20274;-66
2021/12/17 14:06:18;;;;;;;27.00;15.23;;;;;;;10.21;72.06;102995.59;4934150;29;20048;-67
2021/12/17 14:08:46;;;;;;;25.85;15.55;;;;;;;10.43;71.34;103001.09;4917683;29;20063;-67
2021/12/17 14:11:25;;;;;;;26.20;15.15;;;;;;;10.57;70.83;102994.09;4935776;29;20056;-67
2021/12/17 14:14:25;;;;;;;27.10;17.07;;;;;;;10.81;70.02;103009.28;4933697;29;20044;-67
2021/12/17 14:16:57;;;;;;;;;;;;;;;10.18;72.26;102993.38;4930534;29;20058;-67
2021/12/17 14:19:39;;;;;;;30.80;17.60;;;;;;;10.10;73.25;103004.81;4927497;29;19927;-68
2021/12/17 14:22:27;;;;;;;25.15;15.98;;;;;;;10.48;71.47;103001.19;4935762;29;20047;-67
2021/12/17 14:24:56;;;;;;;27.58;15.75;;;;;;;10.47;71.22;103005.00;4933574;29;20103;-67
2021/12/17 14:27:45;;;;;;;29.33;14.60;;;;;;;10.28;70.85;102999.00;4925457;29;20071;-70
2021/12/17 14:30:13;;;;;;;21.70;13.25;;;;;;;10.34;70.10;102997.97;4934728;29;20560;-68
2021/12/17 14:32:45;;;;;;;21.92;13.13;;;;;;;10.03;70.98;103002.22;4934402;29;20058;-67
2021/12/17 14:35:13;;;;;;;26.23;13.40;;;;;;;10.03;71.50;102998.63;4932741;29;20140;-68
2021/12/17 14:37:54;;;;;;;22.08;13.68;;;;;;;10.10;71.18;102972.59;4934896;29;20052;-69
2021/12/17 14:40:35;;;;;;;24.35;12.55;;;;;;;10.04;71.22;102989.28;4935936;29;20055;-69
2021/12/17 14:43:03;;;;;;;21.95;13.32;;;;;;;10.06;71.57;102987.94;4936676;29;20063;-68